Rochebaucourt, Canada
Current Conditions -  °F | °C
As of 11:00 AM on Monday 24 Nov 2014 (Local Time) from CYVO Reporting Station
Rain Showers Rain Showers  
Wind Chill: 35°   Ceiling: 500
Heat Index: 43°   Visibility: 5mi
Dew Point: 43°   Wind: 17mph
Humidity: 100%   Direction: 150°SSE
Pressure: 28.96"   Gusts: 24mph
Location:  48.67°N, 77.47°W
Report Text: CYVO 241600Z 15015G21KT 5SM -SHRA OVC005 06/06 A2896 RMK SF8 PRESFR SLP818 DENSITY ALT 1400FT
Loading
Personal Weather Stations






























Interactive Weather Map New forecast layout! Learn more

10-Day Weather Forecast

Advertisements
Track Severe Weather on mobile